• Join FlightAware (Why Join?)
  • Login
  • US Flag 
03:39AM EDT


 

Airport Tracker/Info


-or-


 

Live Flight TrackerFlight Track Log ✈ DAL1562 ✈ 2014年07月22日 ✈ KPHL - KDTW

Flight Track Log - Related Links

Times and Time Zones

All times are in EDT time to prevent confusion due to time zone crossing. See the DAL1562 flight status page for this flight to view local times or setup timezone preferences in your user account.

Time Position Orientation Groundspeed Altitude Reporting Facility
EDT Latitude Longitude Course Direction KTS MPH feet Rate Location/Type
04:34PM 39.8667 -75.2833 270° West 154 177 800  Level Philadelphia TRACON
04:34PM 39.8500 -75.3167 237° Southwest 162 186 1,700 1,320 Climbing Philadelphia TRACON
04:35PM 39.8571 -75.3007 259° West 195 224 2,300 2,820 Climbing FlightAware ADS-B (KPHL)
04:36PM 39.8396 -75.4094 257° West 261 300 5,200 2,640 Climbing FlightAware ADS-B (KPHL)
04:36PM 39.8408 -75.4617 265° West 258 297 5,500 2,160 Climbing New York Center
04:37PM 39.8472 -75.5622 275° West 270 311 8,700 2,640 Climbing New York Center
04:38PM 39.9135 -75.6245 288° West  Level Estimated
04:38PM 39.8539 -75.6572 275° West 288 331 10,800  Level New York Center
04:39PM 39.9548 -75.7454 270° West  Level Estimated
04:39PM 39.8628 -75.7903 275° West 329 379 12,600  Level New York Center
04:40PM 39.8758 -75.9239 277° West 361 415 14,600 1,980 Climbing New York Center
04:41PM 39.8844 -76.0597 275° West 377 434 16,600 1,680 Climbing New York Center
04:42PM 39.8931 -76.1903 275° West 396 456 18,000 1,620 Climbing New York Center
04:43PM 39.9008 -76.3397 274° West 415 478 19,900 1,680 Climbing New York Center
04:44PM 39.9144 -76.4897 277° West 420 483 21,400 1,500 Climbing New York Center
04:45PM 39.9233 -76.6475 274° West 431 496 22,900 1,440 Climbing New York Center
04:46PM 39.9489 -76.8014 282° West 431 496 24,300 1,260 Climbing New York Center
04:47PM 39.9761 -76.9583 283° West 431 496 25,500 1,200 Climbing New York Center
04:48PM 40.0075 -77.1156 285° West 441 507 26,700 1,140 Climbing New York Center
04:49PM 40.0361 -77.2781 283° West 447 514 27,800 960 Climbing New York Center
04:51PM 40.0819 -77.5372 283° West 467 537 29,100 900 Climbing Cleveland Center
04:52PM 40.1119 -77.7058 283° West 476 548 30,100 960 Climbing Cleveland Center
04:53PM 40.1356 -77.8792 280° West 481 554 31,200 1,140 Climbing Cleveland Center
04:54PM 40.1369 -78.0675 271° West 484 557 32,500 1,200 Climbing Cleveland Center
04:55PM 40.1386 -78.2397 271° West 480 552 33,700 1,080 Climbing Cleveland Center
04:56PM 40.1403 -78.4119 271° West 479 551 34,800 780 Climbing Cleveland Center
04:57PM 40.1414 -78.5831 271° West 475 547 35,400 540 Climbing Cleveland Center
04:58PM 40.1417 -78.7536 270° West 475 547 36,000 240 Climbing Cleveland Center
04:59PM 40.1444 -78.9536 271° West 464 534 36,000  Level Cleveland Center
05:00PM 40.2044 -79.1033 298° West 468 539 36,000 -660 Level Cleveland Center
05:01PM 40.2936 -79.2247 314° West 468 539 34,700 -960 Descending Cleveland Center
05:02PM 40.3519 -79.3694 298° West 470 541 34,000 -360 Descending Cleveland Center
05:03PM 40.4203 -79.5511 296° West 469 540 34,000  Level Cleveland Center
05:04PM 40.4772 -79.7017 296° West 466 536 34,000 -60 Level Cleveland Center
05:05PM 40.5331 -79.8517 296° West 465 535 33,900 -1,020 Descending Cleveland Center
05:06PM 40.5922 -80.0108 296° West 464 534 32,000 -1,920 Descending Cleveland Center
05:07PM 40.6503 -80.1631 297° West 464 534 30,000 -1,020 Descending Cleveland Center
05:08PM 40.7061 -80.3194 295° West 471 542 30,000  Level Cleveland Center
05:09PM 40.7689 -80.4900 296° West 471 542 30,000  Level Cleveland Center
05:10PM 40.8253 -80.6467 295° West 470 541 30,000  Level Cleveland Center
05:11PM 40.8803 -80.7969 296° West 469 540 30,000  Level Cleveland Center
05:13PM 40.9350 -80.9508 295° West 467 537 30,000 -180 Level Cleveland Center
05:14PM 41.0014 -81.1403 295° West 466 536 29,700 -660 Descending Cleveland Center
05:15PM 41.0553 -81.2931 295° West 454 522 28,700 -960 Descending Cleveland Center
05:16PM 41.1083 -81.4442 295° West 453 521 27,700 -960 Descending Cleveland Center
05:17PM 41.1567 -81.5831 295° West 446 513 26,800 -900 Descending Cleveland Center
05:18PM 41.2058 -81.7283 294° West 438 504 25,900 -1,020 Descending Cleveland Center
05:19PM 41.2669 -81.9011 295° West 434 499 24,700 -1,080 Descending Cleveland Center
05:20PM 41.3164 -82.0408 295° West 425 489 23,700 -960 Descending Cleveland Center
05:21PM 41.3664 -82.1775 296° West 422 486 22,800 -1,020 Descending Cleveland Center
05:22PM 41.4394 -82.2981 309° West 415 478 21,700 -1,560 Descending Cleveland Center
05:23PM 41.5092 -82.4150 309° West 403 464 19,600 -2,340 Descending Cleveland Center
05:24PM 41.5661 -82.5133 308° West 393 452 17,700 -2,460 Descending Cleveland Center
05:24PM 41.5881 -82.5481 310° West 392 451 17,100 -2,100 Descending Cleveland Center
05:24PM 41.6197 -82.6094 305° West 382 440 15,800 -2,340 Descending Cleveland Center
05:25PM 41.6542 -82.6581 313° West 378 435 14,700 -2,340 Descending Cleveland Center
05:25PM 41.6797 -82.7067 305° West 367 422 13,700 -2,280 Descending Cleveland Center
05:26PM 41.7158 -82.7639 310° West 367 422 12,400 -1,320 Descending Cleveland Center
05:27PM 41.7711 -82.8331 317° Northwest 349 402 12,000 -420 Descending Cleveland Center
05:27PM 41.7864 -82.8517 318° Northwest 350 403 12,000  Level Cleveland Center
05:28PM 41.8575 -82.9386 318° Northwest 345 397 12,000  Level Cleveland Center
05:29PM 41.9172 -83.0094 319° Northwest 349 402 12,000  Level Cleveland Center
05:29PM 41.9328 -83.0278 319° Northwest 348 400 12,000  Level Cleveland Center
05:30PM 41.9842 -83.0917 317° Northwest 351 404 12,000  Level Cleveland Center
05:30PM 42.0025 -83.1125 320° Northwest 348 400 12,000  Level Cleveland Center
05:31PM 42.0533 -83.1742 318° Northwest 322 371 12,000  Level Cleveland Center
05:31PM 42.0811 -83.2072 319° Northwest 317 365 12,000 -360 Level Cleveland Center
05:32PM 42.1100 -83.2269 333° Northwest 260 299 11,700 -900 Descending Cleveland Center
05:32PM 42.1508 -83.2300 357° North 259 298 11,100 -1,200 Descending Cleveland Center
05:32PM 42.1736 -83.2189 20° North 256 295 10,600 -1,380 Descending Cleveland Center
05:33PM 42.2114 -83.1919 28° Northeast 254 292 9,700 -1,500 Descending Cleveland Center
05:34PM 42.2356 -83.1739 29° Northeast 255 293 9,100 -1,500 Descending Cleveland Center
05:34PM 42.2739 -83.1486 26° Northeast 257 296 8,200 -1,500 Descending Cleveland Center
05:35PM 42.3019 -83.1294 27° Northeast 254 292 7,600 -1,380 Descending Cleveland Center
05:35PM 42.3361 -83.1067 26° Northeast 256 295 6,800 -1,860 Descending Cleveland Center
05:36PM 42.3794 -83.1544 321° Northwest 229 264 4,300 -2,160 Descending Cleveland Center
05:37PM 42.3617 -83.1969 240° Southwest 216 249 3,500 -1,080 Descending Cleveland Center
05:37PM 42.3489 -83.2236 237° Southwest 220 253 3,200 -420 Descending Cleveland Center
05:38PM 42.3394 -83.2419 235° Southwest 193 222 3,200 -600 Level Cleveland Center
05:38PM 42.3117 -83.2656 212° Southwest 187 215 2,600 -840 Descending Cleveland Center
05:39PM 42.2992 -83.2758 211° Southwest 167 192 2,400 -720 Descending Cleveland Center
05:39PM 42.2739 -83.2944 209° Southwest 159 183 1,900 -720 Descending Cleveland Center
05:40PM 42.2592 -83.3042 206° Southwest 133 153 1,600 -720 Descending Cleveland Center
05:40PM 42.2417 -83.3183 211° Southwest 142 163 1,200 -420 Descending Cleveland Center
05:41PM 42.2025 -83.3481 209° Southwest 139 160 900 -300 Descending Cleveland Center